createdAt,value
2015-10-30T07:46:59.823Z,25.54
2015-10-30T07:47:09.732Z,25.46
2015-10-30T07:47:19.732Z,25.39
2015-10-30T07:47:29.732Z,25.33
2015-10-30T07:47:39.732Z,25.26
2015-10-30T07:47:49.732Z,25.21
2015-10-30T07:47:59.732Z,25.16
2015-10-30T07:48:09.735Z,25.13
2015-10-30T07:48:19.735Z,25.08
2015-10-30T07:48:29.720Z,25.06
2015-10-30T07:48:39.720Z,25.02
2015-10-30T07:48:49.720Z,24.99
2015-10-30T07:48:59.720Z,24.94
2015-10-30T07:49:09.723Z,24.91
2015-10-30T07:49:19.723Z,24.89
2015-10-30T07:49:29.738Z,24.86
2015-10-30T07:49:39.738Z,24.84
2015-10-30T07:49:49.723Z,24.85
2015-10-30T07:49:59.723Z,24.84
2015-10-30T07:50:09.725Z,24.84
2015-10-30T07:50:19.725Z,24.82
2015-10-30T07:50:29.725Z,24.82
2015-10-30T07:50:39.740Z,24.81
2015-10-30T07:50:49.740Z,24.81
2015-10-30T07:50:59.740Z,24.81
2015-10-30T07:51:09.728Z,24.8
2015-10-30T07:51:19.728Z,24.79
2015-10-30T07:51:29.728Z,24.78
2015-10-30T07:51:39.728Z,24.76
2015-10-30T07:51:49.743Z,24.74
2015-10-30T07:51:59.728Z,24.74
2015-10-30T07:52:09.745Z,24.72
2015-10-30T07:52:19.745Z,24.71
2015-10-30T07:52:29.730Z,24.7
2015-10-30T07:52:39.745Z,24.69
2015-10-30T07:52:49.730Z,24.69
2015-10-30T07:52:59.730Z,24.67
2015-10-30T07:53:09.748Z,24.66
2015-10-30T07:53:19.748Z,24.64
2015-10-30T07:53:29.733Z,24.61
2015-10-30T07:53:39.733Z,24.61
2015-10-30T07:53:49.733Z,24.6
2015-10-30T07:53:59.733Z,24.59
2015-10-30T07:54:09.751Z,24.58
2015-10-30T07:54:19.751Z,24.56
2015-10-30T07:54:29.736Z,24.56
2015-10-30T07:54:39.751Z,24.54
2015-10-30T07:54:49.736Z,24.54
2015-10-30T07:54:59.736Z,24.53
2015-10-30T07:55:09.739Z,24.52
2015-10-30T07:55:35.395Z,24.47
2015-10-30T07:55:45.395Z,24.46
2015-10-30T07:55:55.395Z,24.44
2015-10-30T07:56:05.395Z,24.45
2015-10-30T07:56:15.398Z,24.43
2015-10-30T07:56:25.398Z,24.42
2015-10-30T07:56:35.398Z,24.42
2015-10-30T07:56:45.398Z,24.42
2015-10-30T07:56:55.398Z,24.4
2015-10-30T07:57:05.398Z,24.4
2015-10-30T07:57:15.400Z,24.39
2015-10-30T07:57:25.400Z,24.38
2015-10-30T07:57:35.400Z,24.37
2015-10-30T08:07:27.832Z,24.1
2015-10-30T08:07:37.832Z,24.1
2015-10-30T08:07:47.847Z,24.1
2015-10-30T08:07:57.847Z,24.1
2015-10-30T08:08:07.832Z,24.09
2015-10-30T08:08:17.847Z,24.09
2015-10-30T08:08:27.833Z,24.09
2015-10-30T08:08:37.818Z,24.09
2015-10-30T08:08:47.833Z,24.08
2015-10-30T08:08:57.833Z,24.07
2015-10-30T08:09:07.818Z,24.06
2015-10-30T08:09:17.818Z,24.07
2015-10-30T08:09:27.814Z,24.06
2015-10-30T08:09:37.657Z,24.04
2015-10-30T08:09:47.829Z,24.04
2015-10-30T08:09:57.814Z,24.04
2015-10-30T08:10:07.814Z,24.04
2015-10-30T08:10:17.829Z,24.06
2015-10-30T08:10:27.810Z,24.07
2015-10-30T08:10:37.810Z,24.06
2015-10-30T08:10:47.825Z,24.05
2015-10-30T08:10:57.825Z,24.04
2015-10-30T08:11:07.825Z,24.05
2015-10-30T08:11:17.810Z,24.05
2015-10-30T08:11:27.807Z,24.05
2015-10-30T08:11:37.822Z,24.06
2015-10-30T08:11:47.807Z,24.05
2015-10-30T08:11:57.807Z,24.05
2015-10-30T08:12:07.822Z,24.05
2015-10-30T08:12:17.807Z,24.04
2015-10-30T08:12:27.818Z,24.02
2015-10-30T08:12:37.818Z,24.01
2015-10-30T08:12:47.818Z,24
2015-10-30T08:12:57.803Z,23.97
2015-10-30T08:13:07.803Z,23.97
2015-10-30T08:13:17.803Z,23.98
2015-10-30T08:13:27.815Z,23.97
2015-10-30T08:13:37.800Z,24
2015-10-30T08:13:47.815Z,24
2015-10-30T08:13:57.815Z,23.99
2015-10-30T08:14:07.815Z,23.97
2015-10-30T08:14:17.815Z,23.97
2015-10-30T08:14:27.815Z,23.96
2015-10-30T08:14:37.800Z,23.96
2015-10-30T08:14:47.815Z,23.97
2015-10-30T08:14:57.815Z,23.97
2015-10-30T08:15:07.815Z,23.98
2015-10-30T08:15:17.815Z,23.99
2015-10-30T08:16:55.989Z,24.03
2015-10-30T08:17:05.989Z,24.06
2015-10-30T08:17:15.989Z,24.08
2015-10-30T08:17:25.990Z,24.08
2015-10-30T08:17:35.990Z,24.08
2015-10-30T08:17:46.006Z,24.09
2015-10-30T08:17:55.990Z,24.09
2015-10-30T08:18:05.990Z,24.09
2015-10-30T08:18:15.990Z,24.07
2015-10-30T08:18:25.990Z,24.07
2015-10-30T08:18:35.990Z,24.08
2015-10-30T08:18:45.990Z,24.07
2015-10-30T08:18:55.990Z,24.07
2015-10-30T08:19:05.990Z,24.05
2015-10-30T08:19:16.021Z,24.05
2015-10-30T08:19:25.993Z,24.07
2015-10-30T08:19:35.993Z,24.07
2015-10-30T08:19:45.993Z,24.06
2015-10-30T08:19:55.993Z,24.05
2015-10-30T08:20:05.993Z,24.03
2015-10-30T08:20:15.993Z,24.04
2015-10-30T08:20:25.995Z,24.02
2015-10-30T08:20:35.995Z,24.03
2015-10-30T08:20:45.995Z,24.03
2015-10-30T08:20:55.995Z,24.02
2015-10-30T08:21:05.995Z,24.01
2015-10-30T08:21:15.995Z,24.01
2015-10-30T08:21:25.996Z,24.02
2015-10-30T08:21:36.012Z,24.01
2015-10-30T08:21:45.996Z,24.01
2015-10-30T08:21:55.996Z,24.01
2015-10-30T08:22:05.996Z,24
2015-10-30T08:22:15.996Z,24.02
2015-10-30T08:22:25.998Z,24.02
2015-10-30T08:22:35.998Z,24.02
2015-10-30T08:22:45.998Z,24.02
2015-10-30T08:22:55.998Z,24.02
2015-10-30T08:23:06.029Z,24.02
2015-10-30T08:23:15.998Z,24.03
2015-10-30T08:23:26.016Z,24.02
2015-10-30T08:23:36.000Z,24.03
2015-10-30T08:23:46.000Z,24.03
2015-10-30T08:23:56.000Z,24.02
2015-10-30T08:24:06.000Z,24.02
2015-10-30T08:24:16.000Z,24.02
2015-10-30T08:24:26.003Z,24.01
2015-10-30T08:24:36.019Z,24
2015-10-30T08:24:45.847Z,24
2015-10-30T08:24:56.019Z,24.01
2015-10-30T08:25:06.003Z,24
2015-10-30T08:25:16.019Z,24.02
2015-10-30T08:25:26.021Z,23.99
2015-10-30T08:25:36.005Z,24
2015-10-30T08:25:46.005Z,24
2015-10-30T08:25:56.021Z,24.01
2015-10-30T08:26:06.021Z,24.01
2015-10-30T08:26:15.865Z,24.03
2015-10-30T08:26:26.007Z,24
2015-10-30T08:26:36.007Z,23.99
2015-10-30T08:26:46.023Z,24
2015-10-30T08:26:56.007Z,24
2015-10-30T08:27:06.007Z,24.02
2015-10-30T08:27:16.023Z,24.01
2015-10-30T08:27:26.026Z,24.01
2015-10-30T08:27:36.010Z,24
2015-10-30T08:27:46.026Z,24.01
2015-10-30T08:27:56.026Z,24.02
2015-10-30T08:28:06.026Z,24.02
2015-10-30T08:28:16.026Z,24.02
2015-10-30T08:28:26.028Z,24.03
2015-10-30T08:28:36.122Z,24.03
2015-10-30T08:28:46.012Z,24.03
2015-10-30T08:28:56.028Z,24.03
2015-10-30T08:29:06.012Z,24.04
2015-10-30T08:29:16.028Z,24.02
2015-10-30T08:29:26.031Z,24.03
2015-10-30T08:29:36.062Z,24.03
2015-10-30T08:29:46.015Z,24.04
2015-10-30T08:29:56.031Z,24.03
2015-10-30T08:30:06.031Z,24.02
2015-10-30T08:30:16.031Z,24.02
2015-10-30T08:30:26.017Z,24.02
2015-10-30T08:30:36.033Z,24.02
2015-10-30T08:30:46.033Z,24.01
2015-10-30T08:30:56.033Z,24
2015-10-30T08:31:06.033Z,23.97
2015-10-30T08:31:16.033Z,23.99
2015-10-30T08:31:26.036Z,23.98
2015-10-30T08:31:36.036Z,23.99
2015-10-30T08:31:46.036Z,23.99
2015-10-30T08:31:56.036Z,24
2015-10-30T08:32:06.036Z,23.99
2015-10-30T08:32:16.036Z,23.99
2015-10-30T08:32:26.039Z,24
2015-10-30T08:32:36.039Z,23.98
2015-10-30T08:32:46.039Z,23.99
2015-10-30T08:32:56.039Z,23.99
2015-10-30T08:33:06.039Z,23.99
2015-10-30T08:33:16.039Z,24
2015-10-30T08:33:26.041Z,23.99
2015-10-30T08:33:36.041Z,24
2015-10-30T08:33:46.041Z,24
2015-10-30T08:33:56.041Z,24
2015-10-30T08:34:06.041Z,23.99
2015-10-30T08:34:16.041Z,24.02
2015-10-30T08:34:26.044Z,24.01
2015-10-30T08:34:36.044Z,24.01
2015-10-30T08:34:46.044Z,23.99
2015-10-30T08:34:56.044Z,23.99
2015-10-30T08:35:06.044Z,24
2015-10-30T08:35:16.044Z,23.99
2015-10-30T08:35:26.046Z,24
2015-10-30T08:35:36.046Z,23.99
2015-10-30T08:35:46.046Z,23.99
2015-10-30T08:35:56.046Z,24
2015-10-30T08:36:06.046Z,24
2015-10-30T08:36:16.046Z,23.99
2015-10-30T08:36:26.064Z,24
2015-10-30T08:36:36.064Z,24
2015-10-30T08:36:46.049Z,23.99
2015-10-30T08:36:56.064Z,23.98
2015-10-30T08:37:06.049Z,23.99
2015-10-30T08:37:16.064Z,23.99
2015-10-30T08:37:26.067Z,24
2015-10-30T08:37:36.067Z,24
2015-10-30T08:37:46.067Z,24.01
2015-10-30T08:37:56.052Z,24
2015-10-30T08:38:06.052Z,24
2015-10-30T08:38:16.052Z,24.01
2015-10-30T08:38:26.054Z,24.01
2015-10-30T08:38:36.054Z,24
2015-10-30T08:38:46.069Z,24.01
2015-10-30T08:38:56.069Z,24
2015-10-30T08:39:06.069Z,24
2015-10-30T08:39:16.069Z,24
2015-10-30T08:39:26.057Z,24
2015-10-30T08:39:36.057Z,24
2015-10-30T08:39:46.072Z,23.99
2015-10-30T08:39:56.072Z,23.99
2015-10-30T08:40:06.057Z,23.98
2015-10-30T08:40:16.057Z,23.98
2015-10-30T08:40:26.075Z,23.97
2015-10-30T08:40:36.075Z,23.98
2015-10-30T08:40:46.075Z,23.97
2015-10-30T08:40:56.075Z,23.98
2015-10-30T08:41:06.075Z,23.99
2015-10-30T08:41:16.060Z,23.99
2015-10-30T08:41:26.062Z,23.99
2015-10-30T08:41:36.077Z,23.99
2015-10-30T08:41:46.077Z,23.98
2015-10-30T08:41:56.077Z,23.99
2015-10-30T08:42:06.077Z,23.98
2015-10-30T08:42:16.077Z,23.99
2015-10-30T08:42:26.080Z,24
2015-10-30T08:42:36.080Z,24.01
2015-10-30T08:42:46.080Z,23.99
2015-10-30T08:42:56.080Z,23.99
2015-10-30T08:43:06.080Z,24
2015-10-30T08:43:16.080Z,24.01
2015-10-30T08:43:26.083Z,24.02
2015-10-30T08:43:36.099Z,24.02
2015-10-30T08:43:46.083Z,24.02
2015-10-30T08:43:56.083Z,24.02
2015-10-30T08:44:06.083Z,24.02
2015-10-30T08:44:16.083Z,24.02
2015-10-30T08:44:26.085Z,24.03
2015-10-30T08:44:36.085Z,24.04
2015-10-30T08:44:46.085Z,24.04
2015-10-30T08:44:56.085Z,24.02
2015-10-30T08:45:06.085Z,24.02
2015-10-30T08:45:16.085Z,24
2015-10-30T08:45:26.089Z,24
2015-10-30T08:45:36.089Z,23.99
2015-10-30T08:45:46.089Z,24
2015-10-30T08:45:56.089Z,23.98
2015-10-30T08:46:06.089Z,23.97
2015-10-30T08:46:16.089Z,23.98
2015-10-30T08:46:26.091Z,23.98
2015-10-30T08:46:36.091Z,23.98
2015-10-30T08:46:46.107Z,23.98
2015-10-30T08:46:56.091Z,23.99
2015-10-30T08:47:06.091Z,23.98
2015-10-30T08:47:16.091Z,23.99
2015-10-30T08:47:26.110Z,23.97
2015-10-30T08:47:36.094Z,23.98
2015-10-30T08:47:46.094Z,23.98
2015-10-30T08:47:56.110Z,23.97
2015-10-30T08:48:06.110Z,23.99
2015-10-30T08:48:16.094Z,23.98
2015-10-30T08:48:26.097Z,23.96
2015-10-30T08:48:36.113Z,23.96
2015-10-30T08:48:46.129Z,23.98
2015-10-30T08:48:56.097Z,23.99
2015-10-30T08:49:06.097Z,23.99
2015-10-30T08:49:16.113Z,23.97
2015-10-30T08:49:26.116Z,23.99
2015-10-30T08:49:36.163Z,23.98
2015-10-30T08:49:46.116Z,23.98
2015-10-30T08:49:56.116Z,23.98
2015-10-30T08:50:06.116Z,24
2015-10-30T08:50:16.116Z,24
2015-10-30T08:50:26.118Z,24.01
2015-10-30T08:50:36.118Z,24.01
2015-10-30T08:50:46.118Z,23.99
2015-10-30T08:50:56.118Z,23.99
2015-10-30T08:51:06.118Z,24
2015-10-30T08:51:16.118Z,23.99
2015-10-30T08:51:26.121Z,23.99
2015-10-30T08:51:36.121Z,23.97
2015-10-30T08:51:46.121Z,23.98
2015-10-30T08:51:56.121Z,23.98
2015-10-30T08:52:06.121Z,23.98
2015-10-30T08:52:16.121Z,23.98
2015-10-30T08:52:26.124Z,23.97
2015-10-30T08:52:36.124Z,23.95
2015-10-30T08:52:46.124Z,23.94
2015-10-30T08:52:56.124Z,23.95
2015-10-30T08:53:06.124Z,23.96
2015-10-30T08:53:16.124Z,23.97
2015-10-30T08:53:26.126Z,23.98
2015-10-30T08:53:36.126Z,23.97
2015-10-30T08:53:46.126Z,23.98
2015-10-30T08:53:56.126Z,23.98
2015-10-30T08:54:06.126Z,23.97
2015-10-30T08:54:16.126Z,23.98
2015-10-30T08:54:26.129Z,23.98
2015-10-30T08:54:36.129Z,23.99
2015-10-30T08:54:46.129Z,23.98
2015-10-30T08:54:56.129Z,23.98
2015-10-30T08:55:06.129Z,23.97
2015-10-30T08:55:16.145Z,23.98
2015-10-30T08:55:26.147Z,23.98
2015-10-30T08:55:36.131Z,23.97
2015-10-30T08:55:46.131Z,23.98
2015-10-30T08:55:56.131Z,23.98
2015-10-30T08:56:06.131Z,23.97
2015-10-30T08:56:16.147Z,23.97
2015-10-30T08:56:26.150Z,23.97
2015-10-30T08:56:36.134Z,23.96
2015-10-30T08:56:46.150Z,23.97
2015-10-30T08:56:56.150Z,23.99
2015-10-30T08:57:06.150Z,23.97
2015-10-30T08:57:16.134Z,23.97
2015-10-30T08:57:26.153Z,23.97
2015-10-30T08:57:36.137Z,23.97
2015-10-30T08:57:46.137Z,23.96
2015-10-30T08:57:56.153Z,23.96
2015-10-30T08:58:06.137Z,23.95
2015-10-30T08:58:16.137Z,23.96
2015-10-30T08:58:26.155Z,23.95
2015-10-30T08:58:36.155Z,23.96
2015-10-30T08:58:46.139Z,23.96
2015-10-30T08:58:56.155Z,23.95
2015-10-30T08:59:06.155Z,23.96
2015-10-30T08:59:16.139Z,23.94
2015-10-30T08:59:26.158Z,23.93
2015-10-30T08:59:36.158Z,23.93
2015-10-30T08:59:46.142Z,23.95
2015-10-30T08:59:56.158Z,23.96
2015-10-30T09:00:06.158Z,23.97
2015-10-30T09:00:16.142Z,23.96
2015-10-30T09:00:26.145Z,23.95
2015-10-30T09:00:36.161Z,23.95
2015-10-30T09:00:46.161Z,23.95
2015-10-30T09:00:56.161Z,23.97
2015-10-30T09:01:06.161Z,23.97
2015-10-30T09:01:16.161Z,23.97
2015-10-30T09:01:26.163Z,23.96
2015-10-30T09:01:36.163Z,23.97
2015-10-30T09:01:46.163Z,23.97
2015-10-30T09:01:56.163Z,23.96
2015-10-30T09:02:06.163Z,23.96
2015-10-30T09:02:16.163Z,23.97
2015-10-30T09:02:26.166Z,23.97
2015-10-30T09:02:36.166Z,23.98
2015-10-30T09:02:46.166Z,23.98
2015-10-30T09:02:56.166Z,23.98
2015-10-30T09:03:06.166Z,23.98
2015-10-30T09:03:16.166Z,23.98
2015-10-30T09:03:26.168Z,23.98
2015-10-30T09:03:36.168Z,23.97
2015-10-30T09:03:46.168Z,23.97
2015-10-30T09:03:56.168Z,23.97
2015-10-30T09:04:06.168Z,23.99
2015-10-30T09:04:16.168Z,23.98
2015-10-30T09:04:26.171Z,23.97
2015-10-30T09:04:36.014Z,23.97
2015-10-30T09:04:46.171Z,23.97
2015-10-30T09:04:56.186Z,23.96
2015-10-30T09:05:06.171Z,23.97
2015-10-30T09:05:16.171Z,23.96
2015-10-30T09:05:26.174Z,23.95
2015-10-30T09:05:36.189Z,23.97
2015-10-30T09:05:46.189Z,23.97
2015-10-30T09:05:56.174Z,23.97
2015-10-30T09:06:06.189Z,23.96
2015-10-30T09:06:16.174Z,23.96
2015-10-30T09:06:26.191Z,23.95
2015-10-30T09:06:36.191Z,23.95
2015-10-30T09:06:46.176Z,23.97
2015-10-30T09:06:56.176Z,23.96
2015-10-30T09:07:06.191Z,23.97
2015-10-30T09:07:16.191Z,23.98
2015-10-30T09:07:26.194Z,23.97
2015-10-30T09:07:36.179Z,23.97
2015-10-30T09:07:46.179Z,23.97
2015-10-30T09:07:56.179Z,23.97
2015-10-30T09:08:06.194Z,23.95
2015-10-30T09:08:16.179Z,23.96
2015-10-30T09:08:26.182Z,23.97
2015-10-30T09:08:36.197Z,23.96
2015-10-30T09:08:46.197Z,23.97
2015-10-30T09:08:56.197Z,23.97
2015-10-30T09:09:06.197Z,23.97
2015-10-30T09:09:16.197Z,23.98
2015-10-30T09:09:26.200Z,23.98
2015-10-30T09:09:36.200Z,23.99
2015-10-30T09:09:46.200Z,23.99
2015-10-30T09:09:56.200Z,23.97
2015-10-30T09:10:06.200Z,23.98
2015-10-30T09:10:16.200Z,23.98
2015-10-30T09:10:26.218Z,24
2015-10-30T09:10:36.202Z,23.99
2015-10-30T09:10:46.202Z,23.98
2015-10-30T09:10:56.202Z,23.96
2015-10-30T09:11:06.202Z,23.98
2015-10-30T09:11:16.202Z,23.98
2015-10-30T09:11:26.205Z,23.98
2015-10-30T09:11:36.205Z,23.97
2015-10-30T09:11:46.205Z,23.96
2015-10-30T09:11:56.205Z,23.97
2015-10-30T09:12:06.205Z,23.99
2015-10-30T09:12:16.205Z,24
2015-10-30T09:12:26.208Z,23.99
2015-10-30T09:12:36.208Z,24
2015-10-30T09:12:46.208Z,23.99
2015-10-30T09:12:56.208Z,24.02
2015-10-30T09:13:06.208Z,24.02
2015-10-30T09:13:16.224Z,24.01
2015-10-30T09:13:26.210Z,24.02
2015-10-30T09:13:36.210Z,24.02
2015-10-30T09:13:46.210Z,24.01
2015-10-30T09:13:56.210Z,24.01
2015-10-30T09:14:06.226Z,24.01
2015-10-30T09:14:16.210Z,24.01
2015-10-30T09:14:26.213Z,24.02
2015-10-30T09:14:36.213Z,24.02
2015-10-30T09:14:46.213Z,24.03
2015-10-30T09:14:56.213Z,24.02
2015-10-30T09:15:06.213Z,24.01
2015-10-30T09:15:16.213Z,24
2015-10-30T09:15:26.216Z,24
2015-10-30T09:15:36.216Z,24
2015-10-30T09:15:46.216Z,24.01
2015-10-30T09:15:56.216Z,24
2015-10-30T09:16:06.232Z,23.99
2015-10-30T09:16:16.232Z,24.01
2015-10-30T09:16:26.219Z,24
2015-10-30T09:16:36.219Z,23.99
2015-10-30T09:16:46.235Z,23.99
2015-10-30T09:16:56.219Z,24
2015-10-30T09:17:06.219Z,24
2015-10-30T09:17:16.219Z,24
2015-10-30T09:17:26.253Z,24
2015-10-30T09:17:36.237Z,24.02
2015-10-30T09:17:46.237Z,24
2015-10-30T09:17:56.221Z,23.99
2015-10-30T09:18:06.221Z,24
2015-10-30T09:18:16.221Z,23.98
2015-10-30T09:18:26.240Z,23.99
2015-10-30T09:18:36.240Z,24
2015-10-30T09:18:46.240Z,23.99
2015-10-30T09:18:56.240Z,23.98
2015-10-30T09:19:06.240Z,23.99
2015-10-30T09:19:16.256Z,24
2015-10-30T09:19:26.243Z,23.99
2015-10-30T09:19:36.243Z,23.99
2015-10-30T09:19:46.243Z,24
2015-10-30T09:19:58.040Z,24
2015-10-30T09:20:06.243Z,23.99
2015-10-30T09:20:16.243Z,23.99
2015-10-30T09:20:26.245Z,23.99
2015-10-30T09:20:36.245Z,24
2015-10-30T09:20:46.245Z,24
2015-10-30T09:20:56.245Z,24
2015-10-30T09:21:06.245Z,24.01
2015-10-30T09:21:16.245Z,24.02
2015-10-30T09:21:26.248Z,24.02
2015-10-30T09:21:36.248Z,24.02
2015-10-30T09:21:46.248Z,24.01
2015-10-30T09:21:56.248Z,24.02
2015-10-30T09:22:06.248Z,24.01
2015-10-30T09:22:16.248Z,24.01
2015-10-30T09:22:26.251Z,24
2015-10-30T09:22:36.251Z,24
2015-10-30T09:22:46.251Z,24
2015-10-30T09:22:56.251Z,24
2015-10-30T09:23:06.251Z,24.01
2015-10-30T09:23:16.251Z,24.01
2015-10-30T09:23:26.253Z,24.01
2015-10-30T09:23:36.253Z,24.01
2015-10-30T09:23:46.253Z,24.01
2015-10-30T09:23:56.253Z,24
2015-10-30T09:24:06.253Z,24.02
2015-10-30T09:24:16.253Z,24.03
2015-10-30T09:24:26.256Z,24.01
2015-10-30T09:24:36.256Z,24.02
2015-10-30T09:24:46.256Z,24.02
2015-10-30T09:24:56.272Z,24.02
2015-10-30T09:25:06.256Z,24.02
2015-10-30T09:25:16.256Z,24.01
2015-10-30T09:25:26.259Z,24.02
2015-10-30T09:25:36.259Z,24.03
2015-10-30T09:25:46.103Z,24.03
2015-10-30T09:25:56.259Z,24.02
2015-10-30T09:26:06.259Z,24.03
2015-10-30T09:26:16.259Z,24.04
2015-10-30T09:26:26.261Z,24.04
2015-10-30T09:26:36.261Z,24.03
2015-10-30T09:26:46.261Z,24.03
2015-10-30T09:26:56.261Z,24.02
2015-10-30T09:27:06.261Z,24.03
2015-10-30T09:27:16.261Z,24.02
2015-10-30T09:27:26.264Z,24.02
2015-10-30T09:27:36.264Z,24.01
2015-10-30T09:27:46.280Z,24.01
2015-10-30T09:27:56.264Z,24.02
2015-10-30T09:28:06.264Z,24.03
2015-10-30T09:28:16.280Z,24.03
2015-10-30T09:28:26.267Z,24.04
2015-10-30T09:28:36.267Z,24.02
2015-10-30T09:28:46.267Z,24.02
2015-10-30T09:28:56.267Z,24.02
2015-10-30T09:29:06.267Z,24.03
2015-10-30T09:29:16.267Z,24.02
2015-10-30T09:29:26.286Z,24.01
2015-10-30T09:29:36.270Z,24.02
2015-10-30T09:29:46.286Z,24.03
2015-10-30T09:29:56.286Z,24.03
2015-10-30T09:30:06.270Z,24.03
2015-10-30T09:30:16.270Z,24.04
2015-10-30T09:30:26.272Z,24.03
2015-10-30T09:30:36.288Z,24.05
2015-10-30T09:30:46.272Z,24.04
2015-10-30T09:30:56.288Z,24.03
2015-10-30T09:31:06.288Z,24.04
2015-10-30T09:31:16.288Z,24.03
2015-10-30T09:31:26.275Z,24.03
2015-10-30T09:31:36.275Z,24.05
2015-10-30T09:31:46.280Z,24.03
2015-10-30T09:31:56.280Z,24.04
2015-10-30T09:32:06.280Z,24.05
2015-10-30T09:32:16.280Z,24.04
2015-10-30T09:32:26.283Z,24.03
2015-10-30T09:32:36.298Z,24.03
2015-10-30T09:32:46.298Z,24.04
2015-10-30T09:32:56.283Z,24.04
2015-10-30T09:33:06.283Z,24.04
2015-10-30T09:33:16.283Z,24.05
2015-10-30T09:33:26.285Z,24.05
2015-10-30T09:33:36.285Z,24.05
2015-10-30T09:33:46.285Z,24.05
2015-10-30T09:33:56.285Z,24.06
2015-10-30T09:34:06.300Z,24.06
2015-10-30T09:34:16.300Z,24.05
2015-10-30T09:34:26.303Z,24.05
2015-10-30T09:34:36.303Z,24.05
2015-10-30T09:34:46.288Z,24.04
2015-10-30T09:34:56.288Z,24.04
2015-10-30T09:35:06.303Z,24.01
2015-10-30T09:35:16.288Z,24.02
2015-10-30T09:35:26.306Z,24.03
2015-10-30T09:35:36.306Z,24.03
2015-10-30T09:35:46.306Z,24.02
2015-10-30T09:35:56.306Z,24.02
2015-10-30T09:36:06.306Z,24.02
2015-10-30T09:36:16.306Z,24.02
2015-10-30T09:36:26.308Z,24.02
2015-10-30T09:36:36.308Z,24.01
2015-10-30T09:36:46.308Z,24.02
2015-10-30T09:36:56.293Z,24.02
2015-10-30T09:37:06.308Z,24.01
2015-10-30T09:37:16.308Z,24.02
2015-10-30T09:37:26.311Z,24.03
2015-10-30T09:37:36.311Z,24.02
2015-10-30T09:37:46.311Z,24.02
2015-10-30T09:37:56.311Z,24.02
2015-10-30T09:38:06.311Z,24.02
2015-10-30T09:38:16.311Z,24.03
2015-10-30T09:38:26.314Z,24.02
2015-10-30T09:38:36.314Z,24.02
2015-10-30T09:38:46.314Z,24.03
2015-10-30T09:38:56.314Z,24.02
2015-10-30T09:39:06.314Z,24.02
2015-10-30T09:39:16.314Z,24.03
2015-10-30T09:39:26.316Z,24.04
2015-10-30T09:39:36.316Z,24.03
2015-10-30T09:39:46.316Z,24.03
2015-10-30T09:39:56.316Z,24.04
2015-10-30T09:40:06.316Z,24.04
2015-10-30T09:40:16.316Z,24.04
2015-10-30T09:40:26.319Z,24.04
2015-10-30T09:40:36.319Z,24.04
2015-10-30T09:40:46.319Z,24.04
2015-10-30T09:40:56.319Z,24.03
2015-10-30T09:41:06.319Z,24.03
2015-10-30T09:41:16.319Z,24.03
2015-10-30T09:41:26.322Z,24.04
2015-10-30T09:41:36.322Z,24.04
2015-10-30T09:41:46.322Z,24.05
2015-10-30T09:41:56.322Z,24.05
2015-10-30T09:42:06.322Z,24.05
2015-10-30T09:42:16.322Z,24.06
2015-10-30T09:42:26.325Z,24.05
2015-10-30T09:42:36.325Z,24.04
2015-10-30T09:42:46.325Z,24.04
2015-10-30T09:42:56.325Z,24.04
2015-10-30T09:43:06.325Z,24.04
2015-10-30T09:43:16.325Z,24.05
2015-10-30T09:43:26.344Z,24.05
2015-10-30T09:43:36.328Z,24.04
2015-10-30T09:43:46.328Z,24.04
2015-10-30T09:43:56.328Z,24.04
2015-10-30T09:44:06.344Z,24.05
2015-10-30T09:44:16.328Z,24.05
2015-10-30T09:44:26.330Z,24.05
2015-10-30T09:44:36.346Z,24.08
2015-10-30T09:44:46.346Z,24.07
2015-10-30T09:44:56.330Z,24.06
2015-10-30T09:45:06.346Z,24.04
2015-10-30T09:45:16.190Z,24.04
2015-10-30T09:45:26.349Z,24.03
2015-10-30T09:45:36.349Z,24.01
2015-10-30T09:45:46.349Z,24.01
2015-10-30T09:45:56.349Z,24.02
2015-10-30T09:46:06.349Z,24
2015-10-30T09:46:16.349Z,24.02
2015-10-30T09:46:26.336Z,24.02
2015-10-30T09:46:36.352Z,24.04
2015-10-30T09:46:46.352Z,24.04
2015-10-30T09:46:56.352Z,24.04
2015-10-30T09:47:06.352Z,24.03
2015-10-30T09:47:16.352Z,24.03
2015-10-30T09:47:26.354Z,24.03
2015-10-30T09:47:36.354Z,24.03
2015-10-30T09:47:46.354Z,24.03
2015-10-30T09:47:56.354Z,24.02
2015-10-30T09:48:06.354Z,24.02
2015-10-30T09:48:16.354Z,24.01
2015-10-30T09:48:26.357Z,24.03
2015-10-30T09:48:36.357Z,24.02
2015-10-30T09:48:46.357Z,24.04
2015-10-30T09:48:56.357Z,24.03
2015-10-30T09:49:06.357Z,24.05
2015-10-30T09:49:16.357Z,24.04
2015-10-30T09:49:26.359Z,24.03
2015-10-30T09:49:36.375Z,24.04
2015-10-30T09:49:46.359Z,24.03
2015-10-30T09:49:56.359Z,24.04
2015-10-30T09:50:06.359Z,24.05
2015-10-30T09:50:16.359Z,24.05
2015-10-30T09:50:26.362Z,24.05
2015-10-30T09:50:36.362Z,24.05
2015-10-30T09:50:46.362Z,24.05
2015-10-30T09:50:56.362Z,24.05
2015-10-30T09:51:06.362Z,24.05
2015-10-30T09:51:16.362Z,24.04
2015-10-30T09:51:26.365Z,24.05
2015-10-30T09:51:36.381Z,24.05
2015-10-30T09:51:46.365Z,24.03
2015-10-30T09:51:56.365Z,24.04
2015-10-30T09:52:06.365Z,24.04
2015-10-30T09:52:16.381Z,24.03
2015-10-30T09:52:26.368Z,24.04
2015-10-30T09:52:36.368Z,24.05
2015-10-30T09:52:46.384Z,24.03
2015-10-30T09:52:56.384Z,24.03
2015-10-30T09:53:06.384Z,24.03
2015-10-30T09:53:16.368Z,24.03
2015-10-30T09:53:26.370Z,24.04
2015-10-30T09:53:36.370Z,24.03
2015-10-30T09:53:46.370Z,24.04
2015-10-30T09:53:56.370Z,24.03
2015-10-30T09:54:06.370Z,24.05
2015-10-30T09:54:16.370Z,24.04
2015-10-30T09:54:26.373Z,24.05
2015-10-30T09:54:36.373Z,24.03
2015-10-30T09:54:46.373Z,24.04
2015-10-30T09:54:56.373Z,24.03
2015-10-30T09:55:06.373Z,24.03
2015-10-30T09:55:16.373Z,24.02
2015-10-30T09:55:26.235Z,24.02
2015-10-30T09:55:36.392Z,24.03
2015-10-30T09:55:46.376Z,24.02
2015-10-30T09:55:56.392Z,24.02
2015-10-30T09:56:06.392Z,24
2015-10-30T09:56:16.376Z,24
2015-10-30T09:56:26.378Z,24.01
2015-10-30T09:56:36.378Z,24.03
2015-10-30T09:56:46.378Z,24.01
2015-10-30T09:56:56.378Z,24.02
2015-10-30T09:57:06.394Z,24.03
2015-10-30T09:57:16.394Z,24.04
2015-10-30T09:57:26.397Z,24.04
2015-10-30T09:57:36.412Z,24.04
2015-10-30T09:57:46.397Z,24.04
2015-10-30T09:57:56.397Z,24.03
2015-10-30T09:58:06.397Z,24.03
2015-10-30T09:58:16.397Z,24.04
2015-10-30T09:58:26.400Z,24.02
2015-10-30T09:58:36.400Z,24.03
2015-10-30T09:58:46.400Z,24.02
2015-10-30T09:58:56.400Z,24.02
2015-10-30T09:59:06.400Z,24.02
2015-10-30T09:59:16.400Z,24.01
2015-10-30T09:59:26.402Z,24.02
2015-10-30T09:59:36.402Z,24.02
2015-10-30T09:59:46.402Z,24.02
2015-10-30T09:59:56.402Z,24.01
2015-10-30T10:00:06.402Z,24.02
2015-10-30T10:00:16.402Z,24.02
2015-10-30T10:00:26.405Z,24.01
2015-10-30T10:00:36.405Z,24.03
2015-10-30T10:00:46.405Z,24.03
2015-10-30T10:00:56.405Z,24.03
2015-10-30T10:01:06.405Z,24.03
2015-10-30T10:01:16.405Z,24.03
2015-10-30T10:01:26.408Z,24.02
2015-10-30T10:01:36.408Z,24.03
2015-10-30T10:01:46.408Z,24.04
2015-10-30T10:01:56.408Z,24.04
2015-10-30T10:02:06.408Z,24.05
2015-10-30T10:02:16.408Z,24.04
2015-10-30T10:02:26.410Z,24.02
2015-10-30T10:02:36.410Z,24.03
2015-10-30T10:02:46.410Z,24.04
2015-10-30T10:02:56.410Z,24.04
2015-10-30T10:03:06.410Z,24.04
2015-10-30T10:03:16.410Z,24.03
2015-10-30T10:03:26.413Z,24.03
2015-10-30T10:03:36.413Z,24.03
2015-10-30T10:03:46.428Z,24.04
2015-10-30T10:03:56.413Z,24.04
2015-10-30T10:04:06.413Z,24.03
2015-10-30T10:04:16.413Z,24.03
2015-10-30T10:04:26.415Z,24.03
2015-10-30T10:04:36.415Z,24.04
2015-10-30T10:04:46.415Z,24.02
2015-10-30T10:04:56.415Z,24.02
2015-10-30T10:05:06.430Z,24.03
2015-10-30T10:05:16.462Z,24.03
2015-10-30T10:05:26.418Z,24.04
2015-10-30T10:05:36.418Z,24.03
2015-10-30T10:05:46.418Z,24.03
2015-10-30T10:05:56.418Z,24.03
2015-10-30T10:06:06.418Z,24.02
2015-10-30T10:06:16.418Z,24.03
2015-10-30T10:06:26.421Z,24.03
2015-10-30T10:06:36.436Z,24.03
2015-10-30T10:06:46.436Z,24.03
2015-10-30T10:06:56.421Z,24.03
2015-10-30T10:07:06.421Z,24.04
2015-10-30T10:07:16.436Z,24.04
2015-10-30T10:07:26.423Z,24.03
2015-10-30T10:07:36.423Z,24.03
2015-10-30T10:07:46.438Z,24.04
2015-10-30T10:07:56.438Z,24.03
2015-10-30T10:08:06.423Z,24.03
2015-10-30T10:08:16.438Z,24.03
2015-10-30T10:08:26.441Z,24.04